sensor_id;sensor_type;location;lat;lon;timestamp;P1;durP1;ratioP1;P2;durP2;ratioP2
9424;SDS011;17139;52.140;11.636;2023-01-09T00:01:12;2.23;;;2.13;;
9424;SDS011;17139;52.140;11.636;2023-01-09T00:03:40;2.03;;;1.80;;
9424;SDS011;17139;52.140;11.636;2023-01-09T00:06:07;1.93;;;1.83;;
9424;SDS011;17139;52.140;11.636;2023-01-09T00:08:37;1.83;;;1.80;;
9424;SDS011;17139;52.140;11.636;2023-01-09T00:11:04;1.77;;;1.77;;
9424;SDS011;17139;52.140;11.636;2023-01-09T00:13:31;1.63;;;1.63;;
9424;SDS011;17139;52.140;11.636;2023-01-09T00:15:58;2.50;;;2.40;;
9424;SDS011;17139;52.140;11.636;2023-01-09T00:18:26;3.43;;;2.63;;
9424;SDS011;17139;52.140;11.636;2023-01-09T00:20:53;2.57;;;1.93;;
9424;SDS011;17139;52.140;11.636;2023-01-09T00:23:20;1.83;;;1.83;;
9424;SDS011;17139;52.140;11.636;2023-01-09T00:25:48;4.13;;;3.92;;
9424;SDS011;17139;52.140;11.636;2023-01-09T00:28:15;2.30;;;2.20;;
9424;SDS011;17139;52.140;11.636;2023-01-09T00:30:42;2.20;;;2.10;;
9424;SDS011;17139;52.140;11.636;2023-01-09T00:33:09;2.03;;;1.93;;
9424;SDS011;17139;52.140;11.636;2023-01-09T00:35:37;2.20;;;2.10;;
9424;SDS011;17139;52.140;11.636;2023-01-09T00:38:05;1.97;;;1.87;;
9424;SDS011;17139;52.140;11.636;2023-01-09T00:40:32;1.73;;;1.70;;
9424;SDS011;17139;52.140;11.636;2023-01-09T00:43:01;1.70;;;1.70;;
9424;SDS011;17139;52.140;11.636;2023-01-09T00:45:28;2.00;;;1.90;;
9424;SDS011;17139;52.140;11.636;2023-01-09T00:47:57;1.90;;;1.90;;
9424;SDS011;17139;52.140;11.636;2023-01-09T00:50:28;3.57;;;3.37;;
9424;SDS011;17139;52.140;11.636;2023-01-09T00:52:59;4.00;;;3.70;;
9424;SDS011;17139;52.140;11.636;2023-01-09T00:55:32;2.43;;;2.33;;
9424;SDS011;17139;52.140;11.636;2023-01-09T00:58:02;2.33;;;2.23;;
9424;SDS011;17139;52.140;11.636;2023-01-09T01:00:29;2.10;;;2.10;;
9424;SDS011;17139;52.140;11.636;2023-01-09T01:02:57;2.27;;;2.17;;
9424;SDS011;17139;52.140;11.636;2023-01-09T01:05:24;2.20;;;2.10;;
9424;SDS011;17139;52.140;11.636;2023-01-09T01:08:09;2.30;;;2.20;;
9424;SDS011;17139;52.140;11.636;2023-01-09T01:10:36;1.83;;;1.73;;
9424;SDS011;17139;52.140;11.636;2023-01-09T01:13:05;2.03;;;2.00;;
9424;SDS011;17139;52.140;11.636;2023-01-09T01:15:33;2.57;;;2.20;;
9424;SDS011;17139;52.140;11.636;2023-01-09T01:18:00;2.27;;;2.17;;
9424;SDS011;17139;52.140;11.636;2023-01-09T01:20:27;2.57;;;2.47;;
9424;SDS011;17139;52.140;11.636;2023-01-09T01:22:54;4.10;;;3.90;;
9424;SDS011;17139;52.140;11.636;2023-01-09T01:25:21;3.03;;;2.83;;
9424;SDS011;17139;52.140;11.636;2023-01-09T01:27:48;2.27;;;2.17;;
9424;SDS011;17139;52.140;11.636;2023-01-09T01:30:18;2.30;;;2.20;;
9424;SDS011;17139;52.140;11.636;2023-01-09T01:32:45;2.40;;;2.30;;
9424;SDS011;17139;52.140;11.636;2023-01-09T01:35:12;2.93;;;2.83;;
9424;SDS011;17139;52.140;11.636;2023-01-09T01:37:39;2.83;;;2.63;;
9424;SDS011;17139;52.140;11.636;2023-01-09T01:40:07;2.30;;;2.20;;
9424;SDS011;17139;52.140;11.636;2023-01-09T01:42:36;2.33;;;2.23;;
9424;SDS011;17139;52.140;11.636;2023-01-09T01:45:12;2.53;;;2.43;;
9424;SDS011;17139;52.140;11.636;2023-01-09T01:47:43;4.00;;;3.80;;
9424;SDS011;17139;52.140;11.636;2023-01-09T01:50:16;4.40;;;4.20;;
9424;SDS011;17139;52.140;11.636;2023-01-09T01:52:51;3.00;;;2.90;;
9424;SDS011;17139;52.140;11.636;2023-01-09T01:55:23;2.73;;;2.57;;
9424;SDS011;17139;52.140;11.636;2023-01-09T01:57:52;2.70;;;2.50;;
9424;SDS011;17139;52.140;11.636;2023-01-09T02:00:23;3.20;;;3.00;;
9424;SDS011;17139;52.140;11.636;2023-01-09T02:02:56;2.43;;;2.33;;
9424;SDS011;17139;52.140;11.636;2023-01-09T02:05:24;2.93;;;2.73;;
9424;SDS011;17139;52.140;11.636;2023-01-09T02:07:52;2.43;;;2.33;;
9424;SDS011;17139;52.140;11.636;2023-01-09T02:10:19;2.87;;;2.67;;
9424;SDS011;17139;52.140;11.636;2023-01-09T02:12:47;3.33;;;3.13;;
9424;SDS011;17139;52.140;11.636;2023-01-09T02:15:14;3.03;;;2.93;;
9424;SDS011;17139;52.140;11.636;2023-01-09T02:20:50;4.18;;;3.92;;
9424;SDS011;17139;52.140;11.636;2023-01-09T02:26:30;3.73;;;3.43;;
9424;SDS011;17139;52.140;11.636;2023-01-09T02:32:48;2.67;;;2.57;;
9424;SDS011;17139;52.140;11.636;2023-01-09T02:35:26;3.67;;;3.37;;
9424;SDS011;17139;52.140;11.636;2023-01-09T02:38:09;3.07;;;2.97;;
9424;SDS011;17139;52.140;11.636;2023-01-09T02:40:43;4.00;;;3.53;;
9424;SDS011;17139;52.140;11.636;2023-01-09T02:43:15;3.40;;;3.20;;
9424;SDS011;17139;52.140;11.636;2023-01-09T02:45:42;3.57;;;3.43;;
9424;SDS011;17139;52.140;11.636;2023-01-09T02:48:11;4.57;;;4.38;;
9424;SDS011;17139;52.140;11.636;2023-01-09T02:50:40;5.88;;;5.43;;
9424;SDS011;17139;52.140;11.636;2023-01-09T02:53:18;5.30;;;4.00;;
9424;SDS011;17139;52.140;11.636;2023-01-09T02:56:03;3.10;;;3.00;;
9424;SDS011;17139;52.140;11.636;2023-01-09T02:58:47;3.80;;;3.50;;
9424;SDS011;17139;52.140;11.636;2023-01-09T03:01:31;3.80;;;3.60;;
9424;SDS011;17139;52.140;11.636;2023-01-09T03:04:07;3.40;;;3.20;;
9424;SDS011;17139;52.140;11.636;2023-01-09T03:06:41;3.90;;;3.30;;
9424;SDS011;17139;52.140;11.636;2023-01-09T03:09:13;3.17;;;3.07;;
9424;SDS011;17139;52.140;11.636;2023-01-09T03:11:47;3.63;;;3.43;;
9424;SDS011;17139;52.140;11.636;2023-01-09T03:14:19;5.20;;;4.90;;
9424;SDS011;17139;52.140;11.636;2023-01-09T03:16:50;5.70;;;5.40;;
9424;SDS011;17139;52.140;11.636;2023-01-09T03:19:24;4.40;;;4.20;;
9424;SDS011;17139;52.140;11.636;2023-01-09T03:21:55;4.03;;;3.83;;
9424;SDS011;17139;52.140;11.636;2023-01-09T03:24:22;3.77;;;3.67;;
9424;SDS011;17139;52.140;11.636;2023-01-09T03:26:49;3.50;;;3.40;;
9424;SDS011;17139;52.140;11.636;2023-01-09T03:29:18;3.10;;;3.00;;
9424;SDS011;17139;52.140;11.636;2023-01-09T03:31:45;3.33;;;3.17;;
9424;SDS011;17139;52.140;11.636;2023-01-09T03:34:12;4.57;;;4.27;;
9424;SDS011;17139;52.140;11.636;2023-01-09T03:36:41;3.70;;;3.40;;
9424;SDS011;17139;52.140;11.636;2023-01-09T03:39:08;3.53;;;3.23;;
9424;SDS011;17139;52.140;11.636;2023-01-09T03:41:35;3.90;;;3.73;;
9424;SDS011;17139;52.140;11.636;2023-01-09T03:44:02;6.32;;;5.93;;
9424;SDS011;17139;52.140;11.636;2023-01-09T03:46:30;7.67;;;4.73;;
9424;SDS011;17139;52.140;11.636;2023-01-09T03:48:57;3.97;;;3.77;;
9424;SDS011;17139;52.140;11.636;2023-01-09T03:51:24;4.07;;;3.87;;
9424;SDS011;17139;52.140;11.636;2023-01-09T03:53:52;4.57;;;4.30;;
9424;SDS011;17139;52.140;11.636;2023-01-09T03:56:19;4.43;;;4.13;;
9424;SDS011;17139;52.140;11.636;2023-01-09T03:58:47;4.03;;;3.83;;
9424;SDS011;17139;52.140;11.636;2023-01-09T04:01:14;5.73;;;4.30;;
9424;SDS011;17139;52.140;11.636;2023-01-09T04:03:41;4.00;;;3.80;;
9424;SDS011;17139;52.140;11.636;2023-01-09T04:06:08;5.23;;;4.17;;
9424;SDS011;17139;52.140;11.636;2023-01-09T04:08:35;3.87;;;3.67;;
9424;SDS011;17139;52.140;11.636;2023-01-09T04:11:04;7.30;;;6.78;;
9424;SDS011;17139;52.140;11.636;2023-01-09T04:13:31;7.70;;;7.07;;
9424;SDS011;17139;52.140;11.636;2023-01-09T04:15:58;5.40;;;5.10;;
9424;SDS011;17139;52.140;11.636;2023-01-09T04:18:25;4.67;;;4.37;;
9424;SDS011;17139;52.140;11.636;2023-01-09T04:20:52;4.77;;;4.50;;
9424;SDS011;17139;52.140;11.636;2023-01-09T04:23:19;4.30;;;4.10;;
9424;SDS011;17139;52.140;11.636;2023-01-09T04:25:46;3.97;;;3.67;;
9424;SDS011;17139;52.140;11.636;2023-01-09T04:28:15;3.87;;;3.67;;
9424;SDS011;17139;52.140;11.636;2023-01-09T04:30:42;4.70;;;4.30;;
9424;SDS011;17139;52.140;11.636;2023-01-09T04:33:09;4.83;;;4.43;;
9424;SDS011;17139;52.140;11.636;2023-01-09T04:35:36;4.63;;;4.30;;
9424;SDS011;17139;52.140;11.636;2023-01-09T04:38:03;4.60;;;4.40;;
9424;SDS011;17139;52.140;11.636;2023-01-09T04:40:33;4.70;;;4.30;;
9424;SDS011;17139;52.140;11.636;2023-01-09T04:43:00;8.55;;;7.75;;
9424;SDS011;17139;52.140;11.636;2023-01-09T04:45:28;5.40;;;5.10;;
9424;SDS011;17139;52.140;11.636;2023-01-09T04:47:56;4.33;;;4.13;;
9424;SDS011;17139;52.140;11.636;2023-01-09T04:50:23;5.17;;;4.77;;
9424;SDS011;17139;52.140;11.636;2023-01-09T04:52:50;4.40;;;4.10;;
9424;SDS011;17139;52.140;11.636;2023-01-09T04:55:17;4.90;;;4.60;;
9424;SDS011;17139;52.140;11.636;2023-01-09T04:57:44;4.83;;;4.53;;
9424;SDS011;17139;52.140;11.636;2023-01-09T05:00:11;4.43;;;4.10;;
9424;SDS011;17139;52.140;11.636;2023-01-09T05:02:40;4.53;;;4.33;;
9424;SDS011;17139;52.140;11.636;2023-01-09T05:05:07;4.73;;;4.53;;
9424;SDS011;17139;52.140;11.636;2023-01-09T05:07:35;4.37;;;4.17;;
9424;SDS011;17139;52.140;11.636;2023-01-09T05:10:03;8.57;;;7.82;;
9424;SDS011;17139;52.140;11.636;2023-01-09T05:12:31;5.70;;;5.30;;
9424;SDS011;17139;52.140;11.636;2023-01-09T05:15:00;5.60;;;5.10;;
9424;SDS011;17139;52.140;11.636;2023-01-09T05:17:27;5.33;;;4.90;;
9424;SDS011;17139;52.140;11.636;2023-01-09T05:19:56;4.73;;;4.53;;
9424;SDS011;17139;52.140;11.636;2023-01-09T05:22:24;5.77;;;4.60;;
9424;SDS011;17139;52.140;11.636;2023-01-09T05:24:52;4.40;;;4.20;;
9424;SDS011;17139;52.140;11.636;2023-01-09T05:27:19;4.70;;;4.40;;
9424;SDS011;17139;52.140;11.636;2023-01-09T05:29:46;4.87;;;4.47;;
9424;SDS011;17139;52.140;11.636;2023-01-09T05:32:13;4.83;;;4.50;;
9424;SDS011;17139;52.140;11.636;2023-01-09T05:34:40;5.00;;;4.60;;
9424;SDS011;17139;52.140;11.636;2023-01-09T05:37:08;7.05;;;6.45;;
9424;SDS011;17139;52.140;11.636;2023-01-09T05:39:35;5.70;;;5.27;;
9424;SDS011;17139;52.140;11.636;2023-01-09T05:42:02;4.67;;;4.37;;
9424;SDS011;17139;52.140;11.636;2023-01-09T05:44:30;4.73;;;4.50;;
9424;SDS011;17139;52.140;11.636;2023-01-09T05:46:57;4.27;;;3.87;;
9424;SDS011;17139;52.140;11.636;2023-01-09T05:49:24;4.53;;;4.33;;
9424;SDS011;17139;52.140;11.636;2023-01-09T05:51:51;4.87;;;4.47;;
9424;SDS011;17139;52.140;11.636;2023-01-09T05:54:19;5.57;;;4.60;;
9424;SDS011;17139;52.140;11.636;2023-01-09T05:56:46;7.90;;;7.30;;
9424;SDS011;17139;52.140;11.636;2023-01-09T05:59:14;5.80;;;5.30;;
9424;SDS011;17139;52.140;11.636;2023-01-09T06:01:41;4.80;;;4.50;;
9424;SDS011;17139;52.140;11.636;2023-01-09T06:04:08;8.27;;;7.55;;
9424;SDS011;17139;52.140;11.636;2023-01-09T06:06:35;7.32;;;6.72;;
9424;SDS011;17139;52.140;11.636;2023-01-09T06:09:04;8.98;;;8.27;;
9424;SDS011;17139;52.140;11.636;2023-01-09T06:11:32;6.03;;;5.73;;
9424;SDS011;17139;52.140;11.636;2023-01-09T06:13:59;5.27;;;5.00;;
9424;SDS011;17139;52.140;11.636;2023-01-09T06:16:27;5.13;;;4.83;;
9424;SDS011;17139;52.140;11.636;2023-01-09T06:18:54;4.83;;;4.40;;
9424;SDS011;17139;52.140;11.636;2023-01-09T06:21:21;4.97;;;4.67;;
9424;SDS011;17139;52.140;11.636;2023-01-09T06:23:48;4.80;;;4.60;;
9424;SDS011;17139;52.140;11.636;2023-01-09T06:26:15;5.60;;;5.20;;
9424;SDS011;17139;52.140;11.636;2023-01-09T06:28:43;5.30;;;4.85;;
9424;SDS011;17139;52.140;11.636;2023-01-09T06:31:10;4.80;;;4.50;;
9424;SDS011;17139;52.140;11.636;2023-01-09T06:33:38;5.17;;;4.63;;
9424;SDS011;17139;52.140;11.636;2023-01-09T06:36:05;8.87;;;4.97;;
9424;SDS011;17139;52.140;11.636;2023-01-09T06:38:33;8.18;;;7.47;;
9424;SDS011;17139;52.140;11.636;2023-01-09T06:41:00;7.20;;;6.70;;
9424;SDS011;17139;52.140;11.636;2023-01-09T06:43:27;5.57;;;5.17;;
9424;SDS011;17139;52.140;11.636;2023-01-09T06:45:55;4.33;;;4.03;;
9424;SDS011;17139;52.140;11.636;2023-01-09T06:48:23;4.70;;;4.43;;
9424;SDS011;17139;52.140;11.636;2023-01-09T06:50:50;8.35;;;7.70;;
9424;SDS011;17139;52.140;11.636;2023-01-09T06:53:17;5.73;;;5.20;;
9424;SDS011;17139;52.140;11.636;2023-01-09T06:55:45;5.85;;;5.20;;
9424;SDS011;17139;52.140;11.636;2023-01-09T06:58:12;4.33;;;4.03;;
9424;SDS011;17139;52.140;11.636;2023-01-09T07:00:39;4.27;;;4.07;;
9424;SDS011;17139;52.140;11.636;2023-01-09T07:03:08;4.63;;;4.33;;
9424;SDS011;17139;52.140;11.636;2023-01-09T07:05:37;7.80;;;4.77;;
9424;SDS011;17139;52.140;11.636;2023-01-09T07:08:06;4.23;;;3.93;;
9424;SDS011;17139;52.140;11.636;2023-01-09T07:10:34;4.77;;;4.47;;
9424;SDS011;17139;52.140;11.636;2023-01-09T07:13:01;4.53;;;4.03;;
9424;SDS011;17139;52.140;11.636;2023-01-09T07:15:28;4.27;;;3.97;;
9424;SDS011;17139;52.140;11.636;2023-01-09T07:17:55;4.17;;;3.87;;
9424;SDS011;17139;52.140;11.636;2023-01-09T07:20:24;7.23;;;6.63;;
9424;SDS011;17139;52.140;11.636;2023-01-09T07:22:51;5.10;;;4.70;;
9424;SDS011;17139;52.140;11.636;2023-01-09T07:25:19;6.00;;;4.00;;
9424;SDS011;17139;52.140;11.636;2023-01-09T07:27:46;4.20;;;4.00;;
9424;SDS011;17139;52.140;11.636;2023-01-09T07:30:13;3.90;;;3.70;;
9424;SDS011;17139;52.140;11.636;2023-01-09T07:32:41;3.90;;;3.70;;
9424;SDS011;17139;52.140;11.636;2023-01-09T07:35:09;3.80;;;3.50;;
9424;SDS011;17139;52.140;11.636;2023-01-09T07:37:37;3.87;;;3.67;;
9424;SDS011;17139;52.140;11.636;2023-01-09T07:40:05;3.80;;;3.50;;
9424;SDS011;17139;52.140;11.636;2023-01-09T07:42:33;3.77;;;3.57;;
9424;SDS011;17139;52.140;11.636;2023-01-09T07:45:00;6.00;;;5.40;;
9424;SDS011;17139;52.140;11.636;2023-01-09T07:47:27;4.30;;;4.10;;
9424;SDS011;17139;52.140;11.636;2023-01-09T07:49:54;7.43;;;6.80;;
9424;SDS011;17139;52.140;11.636;2023-01-09T07:52:21;4.20;;;4.00;;
9424;SDS011;17139;52.140;11.636;2023-01-09T07:54:53;4.97;;;4.60;;
9424;SDS011;17139;52.140;11.636;2023-01-09T07:57:20;3.90;;;3.60;;
9424;SDS011;17139;52.140;11.636;2023-01-09T07:59:47;3.07;;;2.97;;
9424;SDS011;17139;52.140;11.636;2023-01-09T08:02:14;3.10;;;2.90;;
9424;SDS011;17139;52.140;11.636;2023-01-09T08:04:42;2.30;;;2.20;;
9424;SDS011;17139;52.140;11.636;2023-01-09T08:07:09;3.13;;;2.80;;
9424;SDS011;17139;52.140;11.636;2023-01-09T08:09:36;3.20;;;3.00;;
9424;SDS011;17139;52.140;11.636;2023-01-09T08:12:05;5.15;;;4.82;;
9424;SDS011;17139;52.140;11.636;2023-01-09T08:14:32;4.90;;;4.60;;
9424;SDS011;17139;52.140;11.636;2023-01-09T08:17:00;3.70;;;3.40;;
9424;SDS011;17139;52.140;11.636;2023-01-09T08:19:27;3.80;;;3.47;;
9424;SDS011;17139;52.140;11.636;2023-01-09T08:21:54;2.93;;;2.83;;
9424;SDS011;17139;52.140;11.636;2023-01-09T08:24:22;2.73;;;2.63;;
9424;SDS011;17139;52.140;11.636;2023-01-09T08:26:49;3.20;;;3.00;;
9424;SDS011;17139;52.140;11.636;2023-01-09T08:29:17;3.13;;;3.03;;
9424;SDS011;17139;52.140;11.636;2023-01-09T08:31:44;2.67;;;2.47;;
9424;SDS011;17139;52.140;11.636;2023-01-09T08:34:11;2.30;;;2.20;;
9424;SDS011;17139;52.140;11.636;2023-01-09T08:36:38;4.18;;;3.42;;
9424;SDS011;17139;52.140;11.636;2023-01-09T08:39:05;3.60;;;3.30;;
9424;SDS011;17139;52.140;11.636;2023-01-09T08:41:32;2.27;;;2.17;;
9424;SDS011;17139;52.140;11.636;2023-01-09T08:44:18;3.83;;;3.63;;
9424;SDS011;17139;52.140;11.636;2023-01-09T08:47:03;2.50;;;2.40;;
9424;SDS011;17139;52.140;11.636;2023-01-09T08:49:30;2.37;;;2.27;;
9424;SDS011;17139;52.140;11.636;2023-01-09T08:51:58;1.80;;;1.70;;
9424;SDS011;17139;52.140;11.636;2023-01-09T08:54:25;1.43;;;1.43;;
9424;SDS011;17139;52.140;11.636;2023-01-09T08:56:52;2.33;;;1.70;;
9424;SDS011;17139;52.140;11.636;2023-01-09T08:59:20;1.80;;;1.80;;
9424;SDS011;17139;52.140;11.636;2023-01-09T09:01:48;1.50;;;1.50;;
9424;SDS011;17139;52.140;11.636;2023-01-09T09:04:15;2.60;;;2.03;;
9424;SDS011;17139;52.140;11.636;2023-01-09T09:06:42;3.23;;;1.97;;
9424;SDS011;17139;52.140;11.636;2023-01-09T09:09:09;2.45;;;2.35;;
9424;SDS011;17139;52.140;11.636;2023-01-09T09:11:36;2.97;;;2.07;;
9424;SDS011;17139;52.140;11.636;2023-01-09T09:14:04;1.40;;;1.40;;
9424;SDS011;17139;52.140;11.636;2023-01-09T09:16:53;1.40;;;1.40;;
9424;SDS011;17139;52.140;11.636;2023-01-09T09:19:20;1.30;;;1.30;;
9424;SDS011;17139;52.140;11.636;2023-01-09T09:21:47;1.47;;;1.37;;
9424;SDS011;17139;52.140;11.636;2023-01-09T09:24:14;1.27;;;1.27;;
9424;SDS011;17139;52.140;11.636;2023-01-09T09:26:41;5.27;;;1.80;;
9424;SDS011;17139;52.140;11.636;2023-01-09T09:29:08;2.77;;;1.53;;
9424;SDS011;17139;52.140;11.636;2023-01-09T09:31:36;1.43;;;1.43;;
9424;SDS011;17139;52.140;11.636;2023-01-09T09:34:05;1.10;;;1.10;;
9424;SDS011;17139;52.140;11.636;2023-01-09T09:36:32;1.97;;;1.87;;
9424;SDS011;17139;52.140;11.636;2023-01-09T09:38:59;1.40;;;1.40;;
9424;SDS011;17139;52.140;11.636;2023-01-09T09:41:31;1.17;;;1.17;;
9424;SDS011;17139;52.140;11.636;2023-01-09T09:44:44;1.17;;;1.17;;
9424;SDS011;17139;52.140;11.636;2023-01-09T09:47:27;1.10;;;1.10;;
9424;SDS011;17139;52.140;11.636;2023-01-09T09:50:10;0.93;;;0.93;;
9424;SDS011;17139;52.140;11.636;2023-01-09T09:52:47;1.33;;;1.20;;
9424;SDS011;17139;52.140;11.636;2023-01-09T09:55:17;1.43;;;1.33;;
9424;SDS011;17139;52.140;11.636;2023-01-09T09:57:50;1.40;;;1.40;;
9424;SDS011;17139;52.140;11.636;2023-01-09T10:00:18;2.00;;;1.90;;
9424;SDS011;17139;52.140;11.636;2023-01-09T10:02:49;1.30;;;1.20;;
9424;SDS011;17139;52.140;11.636;2023-01-09T10:05:22;1.20;;;1.20;;
9424;SDS011;17139;52.140;11.636;2023-01-09T10:07:52;0.93;;;0.93;;
9424;SDS011;17139;52.140;11.636;2023-01-09T10:10:24;2.20;;;1.20;;
9424;SDS011;17139;52.140;11.636;2023-01-09T10:12:57;1.20;;;1.20;;
9424;SDS011;17139;52.140;11.636;2023-01-09T10:15:47;1.07;;;1.07;;
9424;SDS011;17139;52.140;11.636;2023-01-09T10:18:23;0.70;;;0.70;;
9424;SDS011;17139;52.140;11.636;2023-01-09T10:20:59;2.30;;;1.10;;
9424;SDS011;17139;52.140;11.636;2023-01-09T10:26:41;2.05;;;1.55;;
9424;SDS011;17139;52.140;11.636;2023-01-09T10:32:12;1.17;;;1.17;;
9424;SDS011;17139;52.140;11.636;2023-01-09T10:34:54;1.00;;;1.00;;
9424;SDS011;17139;52.140;11.636;2023-01-09T10:37:35;10.93;;;1.30;;
9424;SDS011;17139;52.140;11.636;2023-01-09T10:40:06;0.80;;;0.80;;
9424;SDS011;17139;52.140;11.636;2023-01-09T10:42:44;1.40;;;1.30;;
9424;SDS011;17139;52.140;11.636;2023-01-09T10:45:15;1.37;;;1.27;;
9424;SDS011;17139;52.140;11.636;2023-01-09T10:47:46;1.70;;;1.60;;
9424;SDS011;17139;52.140;11.636;2023-01-09T10:50:18;2.37;;;1.30;;
9424;SDS011;17139;52.140;11.636;2023-01-09T10:52:49;1.10;;;1.10;;
9424;SDS011;17139;52.140;11.636;2023-01-09T10:55:21;1.25;;;1.17;;
9424;SDS011;17139;52.140;11.636;2023-01-09T10:57:57;1.20;;;0.87;;
9424;SDS011;17139;52.140;11.636;2023-01-09T11:00:27;0.90;;;0.60;;
9424;SDS011;17139;52.140;11.636;2023-01-09T11:02:54;1.93;;;0.90;;
9424;SDS011;17139;52.140;11.636;2023-01-09T11:05:22;1.13;;;1.03;;
9424;SDS011;17139;52.140;11.636;2023-01-09T11:07:54;1.10;;;1.10;;
9424;SDS011;17139;52.140;11.636;2023-01-09T11:10:24;0.53;;;0.53;;
9424;SDS011;17139;52.140;11.636;2023-01-09T11:13:12;1.90;;;1.30;;
9424;SDS011;17139;52.140;11.636;2023-01-09T11:15:43;0.90;;;0.90;;
9424;SDS011;17139;52.140;11.636;2023-01-09T11:18:18;1.23;;;1.13;;
9424;SDS011;17139;52.140;11.636;2023-01-09T11:20:48;1.00;;;0.90;;
9424;SDS011;17139;52.140;11.636;2023-01-09T11:23:24;0.80;;;0.80;;
9424;SDS011;17139;52.140;11.636;2023-01-09T11:25:54;1.63;;;1.20;;
9424;SDS011;17139;52.140;11.636;2023-01-09T11:28:22;0.90;;;0.90;;
9424;SDS011;17139;52.140;11.636;2023-01-09T11:30:51;3.00;;;0.90;;
9424;SDS011;17139;52.140;11.636;2023-01-09T11:33:26;1.10;;;1.03;;
9424;SDS011;17139;52.140;11.636;2023-01-09T11:36:02;2.15;;;0.90;;
9424;SDS011;17139;52.140;11.636;2023-01-09T11:38:44;0.40;;;0.40;;
9424;SDS011;17139;52.140;11.636;2023-01-09T11:41:16;0.57;;;0.57;;
9424;SDS011;17139;52.140;11.636;2023-01-09T11:43:45;0.60;;;0.60;;
9424;SDS011;17139;52.140;11.636;2023-01-09T11:46:31;4.17;;;0.70;;
9424;SDS011;17139;52.140;11.636;2023-01-09T11:49:02;0.70;;;0.70;;
9424;SDS011;17139;52.140;11.636;2023-01-09T11:51:31;1.60;;;0.97;;
9424;SDS011;17139;52.140;11.636;2023-01-09T11:54:19;0.83;;;0.83;;
9424;SDS011;17139;52.140;11.636;2023-01-09T11:56:50;3.15;;;0.68;;
9424;SDS011;17139;52.140;11.636;2023-01-09T11:59:19;0.60;;;0.60;;
9424;SDS011;17139;52.140;11.636;2023-01-09T12:01:54;0.60;;;0.60;;
9424;SDS011;17139;52.140;11.636;2023-01-09T12:04:49;1.33;;;0.57;;
9424;SDS011;17139;52.140;11.636;2023-01-09T12:07:31;0.97;;;0.70;;
9424;SDS011;17139;52.140;11.636;2023-01-09T12:13:27;0.60;;;0.60;;
9424;SDS011;17139;52.140;11.636;2023-01-09T12:16:07;0.70;;;0.70;;
9424;SDS011;17139;52.140;11.636;2023-01-09T12:18:47;0.77;;;0.77;;
9424;SDS011;17139;52.140;11.636;2023-01-09T12:21:29;0.80;;;0.80;;
9424;SDS011;17139;52.140;11.636;2023-01-09T12:26:58;0.70;;;0.70;;
9424;SDS011;17139;52.140;11.636;2023-01-09T12:29:39;0.40;;;0.40;;
9424;SDS011;17139;52.140;11.636;2023-01-09T12:32:25;3.90;;;0.60;;
9424;SDS011;17139;52.140;11.636;2023-01-09T12:35:00;1.27;;;0.63;;
9424;SDS011;17139;52.140;11.636;2023-01-09T12:37:39;4.47;;;0.60;;
9424;SDS011;17139;52.140;11.636;2023-01-09T12:40:24;0.87;;;0.60;;
9424;SDS011;17139;52.140;11.636;2023-01-09T12:43:12;0.60;;;0.60;;
9424;SDS011;17139;52.140;11.636;2023-01-09T12:45:53;0.80;;;0.80;;
9424;SDS011;17139;52.140;11.636;2023-01-09T12:48:34;0.70;;;0.70;;
9424;SDS011;17139;52.140;11.636;2023-01-09T12:51:18;0.97;;;0.50;;
9424;SDS011;17139;52.140;11.636;2023-01-09T12:53:55;2.73;;;0.80;;
9424;SDS011;17139;52.140;11.636;2023-01-09T12:56:28;0.60;;;0.60;;
9424;SDS011;17139;52.140;11.636;2023-01-09T12:59:00;1.83;;;0.53;;
9424;SDS011;17139;52.140;11.636;2023-01-09T13:01:41;0.33;;;0.33;;
9424;SDS011;17139;52.140;11.636;2023-01-09T13:04:13;1.03;;;0.60;;
9424;SDS011;17139;52.140;11.636;2023-01-09T13:06:46;0.60;;;0.60;;
9424;SDS011;17139;52.140;11.636;2023-01-09T13:09:20;0.53;;;0.53;;
9424;SDS011;17139;52.140;11.636;2023-01-09T13:11:53;0.70;;;0.70;;
9424;SDS011;17139;52.140;11.636;2023-01-09T13:14:35;0.30;;;0.30;;
9424;SDS011;17139;52.140;11.636;2023-01-09T13:17:13;1.30;;;0.60;;
9424;SDS011;17139;52.140;11.636;2023-01-09T13:19:45;0.40;;;0.40;;
9424;SDS011;17139;52.140;11.636;2023-01-09T13:22:12;0.40;;;0.40;;
9424;SDS011;17139;52.140;11.636;2023-01-09T13:24:46;0.50;;;0.50;;
9424;SDS011;17139;52.140;11.636;2023-01-09T13:27:31;1.07;;;0.60;;
9424;SDS011;17139;52.140;11.636;2023-01-09T13:30:07;0.50;;;0.50;;
9424;SDS011;17139;52.140;11.636;2023-01-09T13:32:48;0.70;;;0.70;;
9424;SDS011;17139;52.140;11.636;2023-01-09T13:35:22;0.67;;;0.50;;
9424;SDS011;17139;52.140;11.636;2023-01-09T13:37:50;1.10;;;0.60;;
9424;SDS011;17139;52.140;11.636;2023-01-09T13:40:25;1.90;;;0.82;;
9424;SDS011;17139;52.140;11.636;2023-01-09T13:42:55;0.75;;;0.75;;
9424;SDS011;17139;52.140;11.636;2023-01-09T13:45:26;3.37;;;0.73;;
9424;SDS011;17139;52.140;11.636;2023-01-09T13:54:00;0.40;;;0.40;;
9424;SDS011;17139;52.140;11.636;2023-01-09T13:56:28;0.57;;;0.57;;
9424;SDS011;17139;52.140;11.636;2023-01-09T13:58:55;0.90;;;0.53;;
9424;SDS011;17139;52.140;11.636;2023-01-09T14:01:44;0.70;;;0.70;;
9424;SDS011;17139;52.140;11.636;2023-01-09T14:04:35;0.60;;;0.60;;
9424;SDS011;17139;52.140;11.636;2023-01-09T14:07:18;1.90;;;0.70;;
9424;SDS011;17139;52.140;11.636;2023-01-09T14:09:48;0.50;;;0.50;;
9424;SDS011;17139;52.140;11.636;2023-01-09T14:12:17;0.57;;;0.57;;
9424;SDS011;17139;52.140;11.636;2023-01-09T14:14:46;3.27;;;0.70;;
9424;SDS011;17139;52.140;11.636;2023-01-09T14:17:17;0.57;;;0.57;;
9424;SDS011;17139;52.140;11.636;2023-01-09T14:19:52;0.50;;;0.50;;
9424;SDS011;17139;52.140;11.636;2023-01-09T14:22:23;0.40;;;0.40;;
9424;SDS011;17139;52.140;11.636;2023-01-09T14:24:51;1.77;;;0.70;;
9424;SDS011;17139;52.140;11.636;2023-01-09T14:30:36;0.63;;;0.63;;
9424;SDS011;17139;52.140;11.636;2023-01-09T14:33:24;0.60;;;0.60;;
9424;SDS011;17139;52.140;11.636;2023-01-09T14:35:53;4.03;;;0.70;;
9424;SDS011;17139;52.140;11.636;2023-01-09T14:38:27;6.30;;;1.05;;
9424;SDS011;17139;52.140;11.636;2023-01-09T14:41:02;0.70;;;0.70;;
9424;SDS011;17139;52.140;11.636;2023-01-09T14:43:45;0.83;;;0.70;;
9424;SDS011;17139;52.140;11.636;2023-01-09T14:46:17;0.70;;;0.70;;
9424;SDS011;17139;52.140;11.636;2023-01-09T14:51:41;0.77;;;0.77;;
9424;SDS011;17139;52.140;11.636;2023-01-09T14:54:14;0.60;;;0.60;;
9424;SDS011;17139;52.140;11.636;2023-01-09T14:56:50;0.70;;;0.70;;
9424;SDS011;17139;52.140;11.636;2023-01-09T14:59:18;0.70;;;0.70;;
9424;SDS011;17139;52.140;11.636;2023-01-09T15:01:45;1.57;;;0.57;;
9424;SDS011;17139;52.140;11.636;2023-01-09T15:04:24;0.40;;;0.40;;
9424;SDS011;17139;52.140;11.636;2023-01-09T15:06:56;0.60;;;0.60;;
9424;SDS011;17139;52.140;11.636;2023-01-09T15:09:24;0.60;;;0.60;;
9424;SDS011;17139;52.140;11.636;2023-01-09T15:11:53;0.57;;;0.57;;
9424;SDS011;17139;52.140;11.636;2023-01-09T15:14:28;0.57;;;0.57;;
9424;SDS011;17139;52.140;11.636;2023-01-09T15:16:59;2.53;;;0.80;;
9424;SDS011;17139;52.140;11.636;2023-01-09T15:19:30;0.70;;;0.70;;
9424;SDS011;17139;52.140;11.636;2023-01-09T15:22:01;0.87;;;0.87;;
9424;SDS011;17139;52.140;11.636;2023-01-09T15:24:30;1.17;;;0.73;;
9424;SDS011;17139;52.140;11.636;2023-01-09T15:26:59;0.53;;;0.53;;
9424;SDS011;17139;52.140;11.636;2023-01-09T15:29:27;0.67;;;0.67;;
9424;SDS011;17139;52.140;11.636;2023-01-09T15:31:56;0.57;;;0.57;;
9424;SDS011;17139;52.140;11.636;2023-01-09T15:34:26;1.77;;;1.08;;
9424;SDS011;17139;52.140;11.636;2023-01-09T15:36:57;1.27;;;0.70;;
9424;SDS011;17139;52.140;11.636;2023-01-09T15:39:24;0.50;;;0.50;;
9424;SDS011;17139;52.140;11.636;2023-01-09T15:41:55;1.03;;;1.00;;
9424;SDS011;17139;52.140;11.636;2023-01-09T15:44:41;1.43;;;1.10;;